createdAt,value
2019-03-29T00:00:06.421Z,1021.09
2019-03-29T00:01:06.279Z,1021.06
2019-03-29T00:02:06.268Z,1021.08
2019-03-29T00:03:06.256Z,1021.07
2019-03-29T00:04:06.225Z,1021.08
2019-03-29T00:05:06.220Z,1021.05
2019-03-29T00:06:06.192Z,1021.05
2019-03-29T00:07:06.205Z,1021.04
2019-03-29T00:08:06.202Z,1021.00
2019-03-29T00:09:06.160Z,1021.02
2019-03-29T00:10:06.152Z,1020.96
2019-03-29T00:11:06.153Z,1020.97
2019-03-29T00:12:06.131Z,1020.94
2019-03-29T00:13:06.136Z,1020.97
2019-03-29T00:14:06.104Z,1020.95
2019-03-29T00:15:06.126Z,1020.94
2019-03-29T00:16:06.100Z,1020.93
2019-03-29T00:17:06.073Z,1020.92
2019-03-29T00:18:06.060Z,1020.92
2019-03-29T00:19:06.060Z,1020.91
2019-03-29T00:20:06.437Z,1020.91
2019-03-29T00:21:06.025Z,1020.85
2019-03-29T00:22:06.016Z,1020.84
2019-03-29T00:23:06.009Z,1020.86
2019-03-29T00:24:07.189Z,1020.84
2019-03-29T00:25:07.054Z,1020.84
2019-03-29T00:26:05.968Z,1020.84
2019-03-29T00:27:05.956Z,1020.84
2019-03-29T00:28:05.950Z,1020.81
2019-03-29T00:29:05.937Z,1020.77
2019-03-29T00:30:05.924Z,1020.78
2019-03-29T00:31:05.932Z,1020.80
2019-03-29T00:32:06.076Z,1020.78
2019-03-29T00:33:05.897Z,1020.76
2019-03-29T00:34:05.881Z,1020.74
2019-03-29T00:35:05.869Z,1020.74
2019-03-29T00:36:05.856Z,1020.71
2019-03-29T00:37:05.868Z,1020.72
2019-03-29T00:38:05.849Z,1020.68
2019-03-29T00:39:05.825Z,1020.66
2019-03-29T00:40:06.313Z,1020.64
2019-03-29T00:41:05.801Z,1020.63
2019-03-29T00:42:05.787Z,1020.57
2019-03-29T00:43:05.783Z,1020.58
2019-03-29T00:44:05.772Z,1020.55
2019-03-29T00:45:05.756Z,1020.56
2019-03-29T00:46:05.746Z,1020.59
2019-03-29T00:47:05.731Z,1020.53
2019-03-29T00:48:05.720Z,1020.50
2019-03-29T00:49:05.738Z,1020.52
2019-03-29T00:50:06.313Z,1020.53
2019-03-29T00:51:05.687Z,1020.45
2019-03-29T00:52:05.673Z,1020.45
2019-03-29T00:53:05.672Z,1020.48
2019-03-29T00:54:05.654Z,1020.50
2019-03-29T00:55:05.660Z,1020.43
2019-03-29T00:56:05.638Z,1020.42
2019-03-29T00:57:05.621Z,1020.47
2019-03-29T00:58:05.634Z,1020.45
2019-03-29T00:59:05.595Z,1020.40
2019-03-29T01:00:06.889Z,1020.39
2019-03-29T01:01:05.576Z,1020.43
2019-03-29T01:02:05.559Z,1020.38
2019-03-29T01:03:05.549Z,1020.37
2019-03-29T01:04:05.547Z,1020.34
2019-03-29T01:05:05.556Z,1020.36
2019-03-29T01:06:05.552Z,1020.38
2019-03-29T01:07:05.521Z,1020.38
2019-03-29T01:08:08.195Z,1020.36
2019-03-29T01:09:05.498Z,1020.35
2019-03-29T01:10:05.476Z,1020.30
2019-03-29T01:11:05.459Z,1020.29
2019-03-29T01:12:06.251Z,1020.28
2019-03-29T01:13:05.439Z,1020.26
2019-03-29T01:14:05.427Z,1020.26
2019-03-29T01:15:05.421Z,1020.24
2019-03-29T01:16:05.404Z,1020.23
2019-03-29T01:17:05.391Z,1020.25
2019-03-29T01:18:05.396Z,1020.21
2019-03-29T01:19:05.368Z,1020.19
2019-03-29T01:20:05.412Z,1020.17
2019-03-29T01:21:05.349Z,1020.17
2019-03-29T01:22:05.989Z,1020.18
2019-03-29T01:23:05.360Z,1020.19
2019-03-29T01:24:05.319Z,1020.12
2019-03-29T01:25:05.342Z,1020.11
2019-03-29T01:26:05.292Z,1020.10
2019-03-29T01:27:05.288Z,1020.12
2019-03-29T01:28:05.276Z,1020.10
2019-03-29T01:29:05.276Z,1020.09
2019-03-29T01:30:05.248Z,1020.11
2019-03-29T01:31:05.240Z,1020.07
2019-03-29T01:32:05.238Z,1020.10
2019-03-29T01:33:05.218Z,1020.09
2019-03-29T01:34:05.212Z,1020.09
2019-03-29T01:35:05.193Z,1020.09
2019-03-29T01:36:05.191Z,1020.09
2019-03-29T01:37:05.175Z,1020.08
2019-03-29T01:38:05.152Z,1020.02
2019-03-29T01:39:05.172Z,1020.03
2019-03-29T01:40:05.147Z,1020.00
2019-03-29T01:41:05.137Z,1020.01
2019-03-29T01:42:05.125Z,1020.01
2019-03-29T01:43:05.108Z,1019.98
2019-03-29T01:44:05.111Z,1019.95
2019-03-29T01:45:05.077Z,1019.95
2019-03-29T01:46:05.068Z,1019.95
2019-03-29T01:47:05.056Z,1019.90
2019-03-29T01:48:05.044Z,1019.99
2019-03-29T01:49:05.040Z,1019.95
2019-03-29T01:50:05.048Z,1019.87
2019-03-29T01:51:05.008Z,1019.89
2019-03-29T01:52:05.023Z,1019.88
2019-03-29T01:53:05.012Z,1019.89
2019-03-29T01:54:04.995Z,1019.86
2019-03-29T01:55:04.964Z,1019.85
2019-03-29T01:56:04.956Z,1019.83
2019-03-29T01:57:04.944Z,1019.79
2019-03-29T01:58:04.932Z,1019.81
2019-03-29T01:59:04.964Z,1019.80
2019-03-29T02:00:04.909Z,1019.84
2019-03-29T02:01:04.911Z,1019.79
2019-03-29T02:02:04.889Z,1019.74
2019-03-29T02:03:04.890Z,1019.69
2019-03-29T02:04:06.000Z,1019.70
2019-03-29T02:05:04.914Z,1019.69
2019-03-29T02:06:04.844Z,1019.66
2019-03-29T02:07:04.832Z,1019.68
2019-03-29T02:08:05.042Z,1019.64
2019-03-29T02:09:05.100Z,1019.61
2019-03-29T02:10:04.804Z,1019.63
2019-03-29T02:11:04.800Z,1019.65
2019-03-29T02:12:04.784Z,1019.65
2019-03-29T02:13:04.786Z,1019.60
2019-03-29T02:14:04.754Z,1019.54
2019-03-29T02:15:04.744Z,1019.59
2019-03-29T02:16:04.752Z,1019.56
2019-03-29T02:17:04.720Z,1019.56
2019-03-29T02:18:04.715Z,1019.54
2019-03-29T02:19:05.262Z,1019.51
2019-03-29T02:20:04.688Z,1019.48
2019-03-29T02:21:04.680Z,1019.53
2019-03-29T02:22:04.687Z,1019.54
2019-03-29T02:23:04.652Z,1019.50
2019-03-29T02:24:04.652Z,1019.51
2019-03-29T02:25:04.632Z,1019.54
2019-03-29T02:26:04.620Z,1019.54
2019-03-29T02:27:04.610Z,1019.59
2019-03-29T02:28:04.612Z,1019.58
2019-03-29T02:29:04.584Z,1019.55
2019-03-29T02:30:05.089Z,1019.58
2019-03-29T02:31:04.566Z,1019.57
2019-03-29T02:32:04.556Z,1019.57
2019-03-29T02:33:04.570Z,1019.61
2019-03-29T02:34:04.533Z,1019.54
2019-03-29T02:35:04.530Z,1019.60
2019-03-29T02:36:05.658Z,1019.60
2019-03-29T02:37:04.513Z,1019.58
2019-03-29T02:38:04.491Z,1019.48
2019-03-29T02:39:04.498Z,1019.53
2019-03-29T02:40:04.473Z,1019.49
2019-03-29T02:41:04.457Z,1019.46
2019-03-29T02:42:04.442Z,1019.44
2019-03-29T02:43:04.432Z,1019.44
2019-03-29T02:44:04.458Z,1019.47
2019-03-29T02:45:04.443Z,1019.45
2019-03-29T02:46:04.396Z,1019.47
2019-03-29T02:47:04.389Z,1019.48
2019-03-29T02:48:04.380Z,1019.51
2019-03-29T02:49:04.370Z,1019.53
2019-03-29T02:50:04.397Z,1019.50
2019-03-29T02:51:04.829Z,1019.52
2019-03-29T02:52:04.333Z,1019.54
2019-03-29T02:53:04.316Z,1019.53
2019-03-29T02:54:04.320Z,1019.52
2019-03-29T02:55:04.298Z,1019.51
2019-03-29T02:56:04.304Z,1019.50
2019-03-29T02:57:04.272Z,1019.50
2019-03-29T02:58:04.264Z,1019.37
2019-03-29T02:59:04.256Z,1019.44
2019-03-29T03:00:04.250Z,1019.36
2019-03-29T03:01:04.247Z,1019.37
2019-03-29T03:02:04.229Z,1019.37
2019-03-29T03:03:04.209Z,1019.39
2019-03-29T03:04:04.295Z,1019.36
2019-03-29T03:05:04.184Z,1019.35
2019-03-29T03:06:04.279Z,1019.44
2019-03-29T03:07:04.173Z,1019.37
2019-03-29T03:08:04.149Z,1019.45
2019-03-29T03:09:13.154Z,1019.43
2019-03-29T03:10:05.131Z,1019.42
2019-03-29T03:11:04.152Z,1019.45
2019-03-29T03:12:04.110Z,1019.46
2019-03-29T03:13:04.112Z,1019.46
2019-03-29T03:14:04.091Z,1019.44
2019-03-29T03:15:04.124Z,1019.43
2019-03-29T03:16:04.065Z,1019.45
2019-03-29T03:17:04.053Z,1019.48
2019-03-29T03:18:04.046Z,1019.45
2019-03-29T03:19:04.043Z,1019.45
2019-03-29T03:20:04.017Z,1019.44
2019-03-29T03:21:04.016Z,1019.45
2019-03-29T03:22:03.999Z,1019.45
2019-03-29T03:23:04.016Z,1019.41
2019-03-29T03:24:03.997Z,1019.42
2019-03-29T03:25:03.966Z,1019.41
2019-03-29T03:26:03.990Z,1019.42
2019-03-29T03:27:03.936Z,1019.46
2019-03-29T03:28:03.937Z,1019.46
2019-03-29T03:29:03.996Z,1019.50
2019-03-29T03:30:03.912Z,1019.47
2019-03-29T03:31:03.899Z,1019.44
2019-03-29T03:32:03.897Z,1019.45
2019-03-29T03:33:03.874Z,1019.43
2019-03-29T03:34:03.873Z,1019.47
2019-03-29T03:35:03.849Z,1019.41
2019-03-29T03:36:03.845Z,1019.43
2019-03-29T03:37:03.828Z,1019.44
2019-03-29T03:38:03.829Z,1019.40
2019-03-29T03:39:03.813Z,1019.39
2019-03-29T03:40:03.802Z,1019.39
2019-03-29T03:41:03.783Z,1019.38
2019-03-29T03:42:03.793Z,1019.38
2019-03-29T03:43:03.782Z,1019.38
2019-03-29T03:44:03.759Z,1019.39
2019-03-29T03:45:03.736Z,1019.44
2019-03-29T03:46:03.726Z,1019.39
2019-03-29T03:47:03.716Z,1019.34
2019-03-29T03:48:03.705Z,1019.33
2019-03-29T03:49:03.719Z,1019.34
2019-03-29T03:50:03.685Z,1019.32
2019-03-29T03:51:03.669Z,1019.37
2019-03-29T03:52:03.677Z,1019.34
2019-03-29T03:53:03.656Z,1019.35
2019-03-29T03:54:03.652Z,1019.36
2019-03-29T03:55:03.640Z,1019.36
2019-03-29T03:56:03.613Z,1019.32
2019-03-29T03:57:03.604Z,1019.32
2019-03-29T03:58:03.589Z,1019.36
2019-03-29T03:59:03.588Z,1019.32
2019-03-29T04:00:03.593Z,1019.32
2019-03-29T04:01:03.581Z,1019.29
2019-03-29T04:02:03.545Z,1019.29
2019-03-29T04:03:03.545Z,1019.31
2019-03-29T04:04:03.529Z,1019.27
2019-03-29T04:05:03.513Z,1019.32
2019-03-29T04:06:03.506Z,1019.33
2019-03-29T04:07:03.510Z,1019.32
2019-03-29T04:08:03.476Z,1019.37
2019-03-29T04:09:03.473Z,1019.35
2019-03-29T04:10:03.462Z,1019.32
2019-03-29T04:11:03.470Z,1019.31
2019-03-29T04:12:03.443Z,1019.29
2019-03-29T04:13:03.493Z,1019.25
2019-03-29T04:14:03.415Z,1019.25
2019-03-29T04:15:03.409Z,1019.27
2019-03-29T04:16:03.399Z,1019.25
2019-03-29T04:17:03.401Z,1019.23
2019-03-29T04:18:03.405Z,1019.23
2019-03-29T04:19:03.372Z,1019.24
2019-03-29T04:20:03.345Z,1019.26
2019-03-29T04:21:03.336Z,1019.23
2019-03-29T04:22:03.341Z,1019.19
2019-03-29T04:23:03.312Z,1019.22
2019-03-29T04:24:03.323Z,1019.20
2019-03-29T04:25:03.292Z,1019.23
2019-03-29T04:26:03.283Z,1019.26
2019-03-29T04:27:03.295Z,1019.21
2019-03-29T04:28:03.256Z,1019.26
2019-03-29T04:29:05.108Z,1019.25
2019-03-29T04:30:03.265Z,1019.25
2019-03-29T04:31:03.238Z,1019.21
2019-03-29T04:32:03.213Z,1019.21
2019-03-29T04:33:03.201Z,1019.21
2019-03-29T04:34:03.194Z,1019.21
2019-03-29T04:35:03.172Z,1019.21
2019-03-29T04:36:03.173Z,1019.20
2019-03-29T04:37:03.155Z,1019.23
2019-03-29T04:38:03.145Z,1019.23
2019-03-29T04:39:03.135Z,1019.26
2019-03-29T04:40:07.984Z,1019.27
2019-03-29T04:41:04.110Z,1019.30
2019-03-29T04:42:03.104Z,1019.29
2019-03-29T04:43:03.087Z,1019.32
2019-03-29T04:44:03.080Z,1019.32
2019-03-29T04:45:03.064Z,1019.33
2019-03-29T04:46:03.064Z,1019.30
2019-03-29T04:47:03.040Z,1019.27
2019-03-29T04:48:03.030Z,1019.29
2019-03-29T04:49:03.017Z,1019.32
2019-03-29T04:50:03.024Z,1019.31
2019-03-29T04:51:02.992Z,1019.31
2019-03-29T04:52:03.000Z,1019.30
2019-03-29T04:53:02.972Z,1019.27
2019-03-29T04:54:02.960Z,1019.28
2019-03-29T04:55:02.951Z,1019.30
2019-03-29T04:56:02.936Z,1019.28
2019-03-29T04:57:02.924Z,1019.24
2019-03-29T04:58:02.927Z,1019.23
2019-03-29T04:59:02.903Z,1019.24
2019-03-29T05:00:02.889Z,1019.24
2019-03-29T05:01:02.883Z,1019.23
2019-03-29T05:02:02.886Z,1019.21
2019-03-29T05:03:02.884Z,1019.26
2019-03-29T05:04:02.854Z,1019.22
2019-03-29T05:05:02.837Z,1019.25
2019-03-29T05:06:02.841Z,1019.23
2019-03-29T05:07:02.819Z,1019.22
2019-03-29T05:08:02.890Z,1019.21
2019-03-29T05:09:02.803Z,1019.18
2019-03-29T05:10:02.803Z,1019.16
2019-03-29T05:11:02.770Z,1019.12
2019-03-29T05:12:02.757Z,1019.10
2019-03-29T05:13:02.751Z,1019.15
2019-03-29T05:14:02.776Z,1019.17
2019-03-29T05:15:02.747Z,1019.15
2019-03-29T05:16:02.792Z,1019.17
2019-03-29T05:17:02.709Z,1019.16
2019-03-29T05:18:02.711Z,1019.18
2019-03-29T05:19:02.676Z,1019.15
2019-03-29T05:20:02.707Z,1019.22
2019-03-29T05:21:02.683Z,1019.25
2019-03-29T05:22:02.651Z,1019.23
2019-03-29T05:23:02.656Z,1019.22
2019-03-29T05:24:02.627Z,1019.22
2019-03-29T05:25:02.623Z,1019.25
2019-03-29T05:26:02.604Z,1019.17
2019-03-29T05:27:02.616Z,1019.23
2019-03-29T05:28:02.579Z,1019.18
2019-03-29T05:29:02.567Z,1019.17
2019-03-29T05:30:02.556Z,1019.11
2019-03-29T05:31:02.544Z,1019.15
2019-03-29T05:32:02.538Z,1019.14
2019-03-29T05:33:02.535Z,1019.12
2019-03-29T05:34:02.511Z,1019.15
2019-03-29T05:35:02.495Z,1019.11
2019-03-29T05:36:02.491Z,1019.17
2019-03-29T05:37:02.481Z,1019.13
2019-03-29T05:38:02.467Z,1019.06
2019-03-29T05:39:02.476Z,1019.14
2019-03-29T05:40:02.454Z,1019.16
2019-03-29T05:41:02.435Z,1019.15
2019-03-29T05:42:02.433Z,1019.12
2019-03-29T05:43:02.412Z,1019.14
2019-03-29T05:44:02.395Z,1019.11
2019-03-29T05:45:02.415Z,1019.13
2019-03-29T05:46:02.375Z,1019.10
2019-03-29T05:47:02.369Z,1019.08
2019-03-29T05:48:02.351Z,1019.13
2019-03-29T05:49:02.343Z,1019.16
2019-03-29T05:50:02.329Z,1019.12
2019-03-29T05:51:02.349Z,1019.11
2019-03-29T05:52:02.335Z,1019.16
2019-03-29T05:53:02.308Z,1019.09
2019-03-29T05:54:02.287Z,1019.14
2019-03-29T05:55:02.282Z,1019.11
2019-03-29T05:56:02.265Z,1019.10
2019-03-29T05:57:02.267Z,1019.06
2019-03-29T05:58:02.275Z,1019.07
2019-03-29T05:59:02.235Z,1019.06
2019-03-29T06:00:02.221Z,1019.05
2019-03-29T06:01:02.207Z,1019.06
2019-03-29T06:02:02.211Z,1019.04
2019-03-29T06:03:02.183Z,1019.05
2019-03-29T06:04:02.170Z,1019.08
2019-03-29T06:05:02.170Z,1019.08
2019-03-29T06:06:02.154Z,1019.08
2019-03-29T06:07:02.149Z,1019.10
2019-03-29T06:08:02.131Z,1019.06
2019-03-29T06:09:02.118Z,1019.08
2019-03-29T06:10:02.112Z,1019.11
2019-03-29T06:11:02.094Z,1019.05
2019-03-29T06:12:02.095Z,1019.07
2019-03-29T06:13:02.085Z,1019.04
2019-03-29T06:14:02.080Z,1019.02
2019-03-29T06:15:02.048Z,1019.02
2019-03-29T06:16:02.047Z,1019.11
2019-03-29T06:17:02.034Z,1019.08
2019-03-29T06:18:02.034Z,1019.07
2019-03-29T06:19:02.003Z,1019.12
2019-03-29T06:20:01.997Z,1019.12
2019-03-29T06:21:01.990Z,1019.12
2019-03-29T06:22:01.971Z,1019.13
2019-03-29T06:23:01.967Z,1019.13
2019-03-29T06:24:09.045Z,1019.11
2019-03-29T06:25:01.936Z,1019.08
2019-03-29T06:26:01.985Z,1019.08
2019-03-29T06:27:01.913Z,1019.03
2019-03-29T06:28:01.908Z,1019.02
2019-03-29T06:29:01.927Z,1019.00
2019-03-29T06:30:01.883Z,1019.03
2019-03-29T06:31:01.875Z,1019.00
2019-03-29T06:32:01.887Z,1018.99
2019-03-29T06:33:01.855Z,1019.00
2019-03-29T06:34:08.898Z,1019.00
2019-03-29T06:35:01.831Z,1018.97
2019-03-29T06:36:01.817Z,1018.96
2019-03-29T06:37:01.887Z,1018.94
2019-03-29T06:38:01.816Z,1019.00
2019-03-29T06:39:01.780Z,1018.95
2019-03-29T06:40:01.769Z,1018.97
2019-03-29T06:41:03.435Z,1018.96
2019-03-29T06:42:01.749Z,1018.96
2019-03-29T06:43:01.739Z,1018.95
2019-03-29T06:44:01.745Z,1019.00
2019-03-29T06:45:01.718Z,1019.02
2019-03-29T06:46:01.707Z,1018.96
2019-03-29T06:47:01.699Z,1018.98
2019-03-29T06:48:01.702Z,1019.00
2019-03-29T06:49:01.687Z,1019.02
2019-03-29T06:50:01.674Z,1019.00
2019-03-29T06:51:01.651Z,1019.05
2019-03-29T06:52:01.648Z,1019.03
2019-03-29T06:53:01.635Z,1019.01
2019-03-29T06:54:01.633Z,1019.02
2019-03-29T06:55:01.617Z,1019.01
2019-03-29T06:56:01.613Z,1019.02
2019-03-29T06:57:01.595Z,1019.01
2019-03-29T06:58:01.589Z,1019.02
2019-03-29T06:59:01.559Z,1019.00
2019-03-29T07:00:01.553Z,1019.03
2019-03-29T07:01:01.602Z,1019.05
2019-03-29T07:02:01.529Z,1019.04
2019-03-29T07:03:01.523Z,1019.03
2019-03-29T07:04:01.501Z,1019.07
2019-03-29T07:05:01.490Z,1019.02
2019-03-29T07:06:01.505Z,1019.02
2019-03-29T07:07:01.486Z,1019.01
2019-03-29T07:08:01.478Z,1019.03
2019-03-29T07:09:01.459Z,1019.04
2019-03-29T07:10:01.443Z,1019.00
2019-03-29T07:11:01.440Z,1019.02
2019-03-29T07:12:01.415Z,1019.05
2019-03-29T07:13:01.435Z,1019.09
2019-03-29T07:14:01.393Z,1019.07
2019-03-29T07:15:01.379Z,1019.07
2019-03-29T07:16:01.368Z,1019.00
2019-03-29T07:17:01.362Z,1019.02
2019-03-29T07:18:01.343Z,1019.03
2019-03-29T07:19:04.760Z,1019.03
2019-03-29T07:20:01.327Z,1019.00
2019-03-29T07:21:01.315Z,1019.01
2019-03-29T07:22:01.307Z,1019.02
2019-03-29T07:23:01.295Z,1019.04
2019-03-29T07:24:01.287Z,1019.02
2019-03-29T07:25:01.287Z,1019.05
2019-03-29T07:26:01.324Z,1019.03
2019-03-29T07:27:01.258Z,1019.05
2019-03-29T07:28:01.235Z,1019.01
2019-03-29T07:29:01.243Z,1019.02
2019-03-29T07:30:01.242Z,1018.99
2019-03-29T07:31:01.219Z,1019.02
2019-03-29T07:32:01.192Z,1019.00
2019-03-29T07:33:01.187Z,1018.99
2019-03-29T07:34:01.171Z,1019.02
2019-03-29T07:35:01.168Z,1018.94
2019-03-29T07:36:01.186Z,1018.97
2019-03-29T07:37:01.158Z,1018.97
2019-03-29T07:38:01.122Z,1018.98
2019-03-29T07:39:01.111Z,1019.04
2019-03-29T07:40:01.124Z,1019.12
2019-03-29T07:41:01.098Z,1019.05
2019-03-29T07:42:01.086Z,1019.03
2019-03-29T07:43:01.062Z,1019.04
2019-03-29T07:44:01.047Z,1019.05
2019-03-29T07:45:01.044Z,1019.02
2019-03-29T07:46:01.061Z,1019.03
2019-03-29T07:47:01.032Z,1019.03
2019-03-29T07:48:01.026Z,1019.03
2019-03-29T07:49:01.014Z,1019.03
2019-03-29T07:50:00.991Z,1019.04
2019-03-29T07:51:00.983Z,1019.02
2019-03-29T07:52:00.973Z,1019.05
2019-03-29T07:53:00.972Z,1019.03
2019-03-29T07:54:00.938Z,1019.06
2019-03-29T07:55:00.991Z,1019.06
2019-03-29T07:56:00.927Z,1019.07
2019-03-29T07:57:00.940Z,1019.04
2019-03-29T07:58:00.963Z,1019.04
2019-03-29T07:59:00.888Z,1019.05
2019-03-29T08:00:00.875Z,1019.04
2019-03-29T08:01:00.871Z,1019.02
2019-03-29T08:02:02.315Z,1019.03
2019-03-29T08:03:00.851Z,1018.97
2019-03-29T08:04:00.842Z,1018.99
2019-03-29T08:05:00.815Z,1018.97
2019-03-29T08:06:00.815Z,1019.01
2019-03-29T08:07:00.820Z,1019.05
2019-03-29T08:08:00.799Z,1019.05
2019-03-29T08:09:01.076Z,1019.09
2019-03-29T08:10:03.584Z,1019.04
2019-03-29T08:11:00.750Z,1019.10
2019-03-29T08:12:00.753Z,1019.10
2019-03-29T08:13:00.775Z,1019.11
2019-03-29T08:14:00.754Z,1019.11
2019-03-29T08:15:00.707Z,1019.08
2019-03-29T08:16:00.730Z,1019.12
2019-03-29T08:17:00.703Z,1019.14
2019-03-29T08:18:01.686Z,1019.15
2019-03-29T08:19:00.676Z,1019.13
2019-03-29T08:20:30.256Z,1019.08
2019-03-29T08:21:01.637Z,1019.07
2019-03-29T08:22:00.639Z,1019.09
2019-03-29T08:23:00.620Z,1019.12
2019-03-29T08:24:00.622Z,1019.12
2019-03-29T08:25:00.603Z,1019.07
2019-03-29T08:26:00.578Z,1019.10
2019-03-29T08:27:00.571Z,1019.12
2019-03-29T08:28:00.566Z,1019.13
2019-03-29T08:29:00.551Z,1019.13
2019-03-29T08:30:00.562Z,1019.08
2019-03-29T08:31:00.527Z,1019.09
2019-03-29T08:32:00.516Z,1019.08
2019-03-29T08:33:00.499Z,1019.10
2019-03-29T08:34:00.490Z,1019.06
2019-03-29T08:35:00.482Z,1019.09
2019-03-29T08:36:00.506Z,1019.03
2019-03-29T08:37:00.464Z,1019.08
2019-03-29T08:38:00.443Z,1019.11
2019-03-29T08:39:00.444Z,1019.05
2019-03-29T08:40:00.446Z,1019.05
2019-03-29T08:41:00.431Z,1019.09
2019-03-29T08:42:00.886Z,1019.05
2019-03-29T08:43:00.405Z,1019.08
2019-03-29T08:44:00.376Z,1019.04
2019-03-29T08:45:00.414Z,1019.05
2019-03-29T08:46:00.363Z,1019.07
2019-03-29T08:47:00.382Z,1019.06
2019-03-29T08:48:02.218Z,1019.04
2019-03-29T08:49:00.319Z,1019.07
2019-03-29T08:50:00.429Z,1019.12
2019-03-29T08:51:00.294Z,1019.06
2019-03-29T08:52:00.318Z,1019.09
2019-03-29T08:53:00.278Z,1019.04
2019-03-29T08:54:00.272Z,1019.08
2019-03-29T08:55:00.421Z,1019.04
2019-03-29T08:56:00.244Z,1019.06
2019-03-29T08:57:00.231Z,1019.11
2019-03-29T08:58:00.235Z,1019.07
2019-03-29T08:59:00.219Z,1019.03
2019-03-29T09:00:00.399Z,1019.02
2019-03-29T09:01:00.188Z,1019.04
2019-03-29T09:02:00.191Z,1019.06
2019-03-29T09:03:00.206Z,1019.04
2019-03-29T09:04:05.114Z,1018.99
2019-03-29T09:05:01.149Z,1018.96
2019-03-29T09:06:00.131Z,1019.01
2019-03-29T09:07:00.131Z,1018.96
2019-03-29T09:08:00.106Z,1019.01
2019-03-29T09:09:00.124Z,1018.95
2019-03-29T09:10:00.162Z,1019.01
2019-03-29T09:11:00.077Z,1019.00
2019-03-29T09:12:13.391Z,1018.98
2019-03-29T09:13:04.254Z,1018.99
2019-03-29T09:14:00.044Z,1018.98
2019-03-29T09:15:03.375Z,1018.93
2019-03-29T09:16:00.027Z,1018.92
2019-03-29T09:17:00.008Z,1018.90
2019-03-29T09:18:00.309Z,1018.83
2019-03-29T09:18:59.983Z,1018.88
2019-03-29T09:19:59.991Z,1018.88
2019-03-29T09:21:00.004Z,1018.86
2019-03-29T09:21:59.958Z,1018.87
2019-03-29T09:22:59.939Z,1018.91
2019-03-29T09:23:59.938Z,1018.89
2019-03-29T09:24:59.915Z,1018.88
2019-03-29T09:25:59.938Z,1018.88
2019-03-29T09:26:59.891Z,1018.87
2019-03-29T09:27:59.883Z,1018.83
2019-03-29T09:28:59.871Z,1018.85
2019-03-29T09:29:59.863Z,1018.85
2019-03-29T09:30:59.847Z,1018.90
2019-03-29T09:31:59.867Z,1018.85
2019-03-29T09:32:59.847Z,1018.86
2019-03-29T09:33:59.820Z,1018.86
2019-03-29T09:34:59.803Z,1018.83
2019-03-29T09:35:59.799Z,1018.85
2019-03-29T09:37:00.228Z,1018.81
2019-03-29T09:37:59.766Z,1018.86
2019-03-29T09:38:59.832Z,1018.82
2019-03-29T09:39:59.743Z,1018.80
2019-03-29T09:40:59.769Z,1018.78
2019-03-29T09:41:59.720Z,1018.76
2019-03-29T09:43:07.392Z,1018.78
2019-03-29T09:44:00.712Z,1018.78
2019-03-29T09:44:59.690Z,1018.82
2019-03-29T09:46:03.020Z,1018.74
2019-03-29T09:46:59.685Z,1018.69
2019-03-29T09:47:59.650Z,1018.64
2019-03-29T09:48:59.719Z,1018.63
2019-03-29T09:49:59.643Z,1018.68
2019-03-29T09:50:59.623Z,1018.62
2019-03-29T09:51:59.722Z,1018.58
2019-03-29T09:53:01.458Z,1018.57
2019-03-29T09:53:59.585Z,1018.52
2019-03-29T09:54:59.588Z,1018.54
2019-03-29T09:55:59.611Z,1018.52
2019-03-29T09:56:59.551Z,1018.50
2019-03-29T09:57:59.567Z,1018.55
2019-03-29T09:58:59.531Z,1018.55
2019-03-29T10:00:00.548Z,1018.57
2019-03-29T10:00:59.506Z,1018.54
2019-03-29T10:01:59.508Z,1018.50
2019-03-29T10:02:59.492Z,1018.52
2019-03-29T10:03:59.500Z,1018.51
2019-03-29T10:04:59.467Z,1018.55
2019-03-29T10:05:59.479Z,1018.61
2019-03-29T10:06:59.435Z,1018.57
2019-03-29T10:07:59.430Z,1018.60
2019-03-29T10:08:59.420Z,1018.58
2019-03-29T10:09:59.427Z,1018.59
2019-03-29T10:10:59.398Z,1018.53
2019-03-29T10:11:59.382Z,1018.55
2019-03-29T10:12:59.370Z,1018.52
2019-03-29T10:13:59.362Z,1018.53
2019-03-29T10:14:59.350Z,1018.48
2019-03-29T10:15:59.425Z,1018.48
2019-03-29T10:16:59.323Z,1018.43
2019-03-29T10:17:59.352Z,1018.38
2019-03-29T10:18:59.311Z,1018.39
2019-03-29T10:19:59.290Z,1018.40
2019-03-29T10:20:59.287Z,1018.32
2019-03-29T10:21:59.290Z,1018.34
2019-03-29T10:22:59.255Z,1018.31
2019-03-29T10:23:59.246Z,1018.27
2019-03-29T10:25:01.808Z,1018.24
2019-03-29T10:25:59.258Z,1018.26
2019-03-29T10:26:59.292Z,1018.30
2019-03-29T10:27:59.198Z,1018.25
2019-03-29T10:28:59.186Z,1018.22
2019-03-29T10:29:59.183Z,1018.23
2019-03-29T10:30:59.171Z,1018.22
2019-03-29T10:31:59.178Z,1018.15
2019-03-29T10:32:59.142Z,1018.15
2019-03-29T10:33:59.174Z,1018.08
2019-03-29T10:34:59.115Z,1018.09
2019-03-29T10:35:59.111Z,1018.08
2019-03-29T10:36:59.091Z,1018.06
2019-03-29T10:37:59.102Z,1018.03
2019-03-29T10:38:59.078Z,1018.02
2019-03-29T10:39:59.083Z,1017.98
2019-03-29T10:40:59.055Z,1018.01
2019-03-29T10:41:59.115Z,1017.98
2019-03-29T10:42:59.030Z,1018.00
2019-03-29T10:43:59.031Z,1018.02
2019-03-29T10:44:59.011Z,1017.95
2019-03-29T10:45:59.022Z,1017.98
2019-03-29T10:46:58.986Z,1017.95
2019-03-29T10:47:58.970Z,1017.97
2019-03-29T10:48:58.964Z,1017.98
2019-03-29T10:49:58.946Z,1017.93
2019-03-29T10:50:58.944Z,1017.88
2019-03-29T10:51:58.942Z,1017.81
2019-03-29T10:52:58.951Z,1017.80
2019-03-29T10:53:59.035Z,1017.81
2019-03-29T10:54:58.918Z,1017.88
2019-03-29T10:55:58.893Z,1017.83
2019-03-29T10:56:58.891Z,1017.82
2019-03-29T10:57:58.882Z,1017.75
2019-03-29T10:58:58.846Z,1017.75
2019-03-29T10:59:58.835Z,1017.70
2019-03-29T11:00:58.842Z,1017.66
2019-03-29T11:01:58.818Z,1017.64
2019-03-29T11:02:58.806Z,1017.62
2019-03-29T11:03:58.814Z,1017.71
2019-03-29T11:04:58.782Z,1017.73
2019-03-29T11:05:58.765Z,1017.71
2019-03-29T11:06:58.785Z,1017.65
2019-03-29T11:07:58.751Z,1017.67
2019-03-29T11:08:58.778Z,1017.63
2019-03-29T11:09:58.723Z,1017.61
2019-03-29T11:10:58.720Z,1017.62
2019-03-29T11:11:58.726Z,1017.61
2019-03-29T11:13:11.794Z,1017.61
2019-03-29T11:13:59.699Z,1017.56
2019-03-29T11:14:58.669Z,1017.58
2019-03-29T11:15:58.686Z,1017.56
2019-03-29T11:16:58.642Z,1017.53
2019-03-29T11:17:58.642Z,1017.49
2019-03-29T11:18:58.634Z,1017.47
2019-03-29T11:19:58.624Z,1017.50
2019-03-29T11:20:58.600Z,1017.54
2019-03-29T11:21:58.587Z,1017.49
2019-03-29T11:22:58.643Z,1017.48
2019-03-29T11:23:58.570Z,1017.48
2019-03-29T11:24:58.567Z,1017.49
2019-03-29T11:25:58.586Z,1017.45
2019-03-29T11:26:58.543Z,1017.47
2019-03-29T11:27:58.527Z,1017.44
2019-03-29T11:28:58.519Z,1017.46
2019-03-29T11:29:58.498Z,1017.47
2019-03-29T11:30:58.490Z,1017.47
2019-03-29T11:31:58.486Z,1017.43
2019-03-29T11:32:58.486Z,1017.42
2019-03-29T11:33:58.457Z,1017.38
2019-03-29T11:34:58.455Z,1017.39
2019-03-29T11:35:58.431Z,1017.38
2019-03-29T11:36:58.486Z,1017.42
2019-03-29T11:37:58.418Z,1017.36
2019-03-29T11:38:58.398Z,1017.40
2019-03-29T11:39:58.390Z,1017.40
2019-03-29T11:40:58.371Z,1017.37
2019-03-29T11:41:58.371Z,1017.35
2019-03-29T11:42:58.414Z,1017.36
2019-03-29T11:43:58.358Z,1017.40
2019-03-29T11:44:58.327Z,1017.41
2019-03-29T11:45:58.322Z,1017.34
2019-03-29T11:46:58.310Z,1017.29
2019-03-29T11:48:08.240Z,1017.31
2019-03-29T11:48:59.301Z,1017.31
2019-03-29T11:49:58.274Z,1017.25
2019-03-29T11:50:58.310Z,1017.24
2019-03-29T11:51:58.266Z,1017.26
2019-03-29T11:52:58.246Z,1017.22
2019-03-29T11:53:58.239Z,1017.22
2019-03-29T11:54:58.222Z,1017.20
2019-03-29T11:55:58.202Z,1017.16
2019-03-29T11:56:58.199Z,1017.19
2019-03-29T11:57:58.187Z,1017.07
2019-03-29T11:58:58.230Z,1017.08
2019-03-29T11:59:58.158Z,1017.09
2019-03-29T12:00:58.151Z,1017.03
2019-03-29T12:01:58.143Z,1017.00
2019-03-29T12:02:58.126Z,1016.95
2019-03-29T12:03:58.115Z,1016.96
2019-03-29T12:04:58.123Z,1016.95